sensor_id;sensor_type;location;lat;lon;timestamp;P1;durP1;ratioP1;P2;durP2;ratioP2
52618;SDS011;38513;53.234;6.568;2023-03-01T00:01:02;29.48;;;22.00;;
52618;SDS011;38513;53.234;6.568;2023-03-01T00:03:29;30.35;;;22.33;;
52618;SDS011;38513;53.234;6.568;2023-03-01T00:05:55;34.63;;;23.35;;
52618;SDS011;38513;53.234;6.568;2023-03-01T00:08:21;31.88;;;22.45;;
52618;SDS011;38513;53.234;6.568;2023-03-01T00:10:47;33.50;;;23.98;;
52618;SDS011;38513;53.234;6.568;2023-03-01T00:13:13;33.60;;;23.45;;
52618;SDS011;38513;53.234;6.568;2023-03-01T00:15:40;31.20;;;22.40;;
52618;SDS011;38513;53.234;6.568;2023-03-01T00:18:09;32.20;;;24.10;;
52618;SDS011;38513;53.234;6.568;2023-03-01T00:20:35;32.00;;;23.50;;
52618;SDS011;38513;53.234;6.568;2023-03-01T00:23:01;34.97;;;24.42;;
52618;SDS011;38513;53.234;6.568;2023-03-01T00:25:27;35.78;;;25.75;;
52618;SDS011;38513;53.234;6.568;2023-03-01T00:27:53;34.47;;;24.85;;
52618;SDS011;38513;53.234;6.568;2023-03-01T00:30:19;31.75;;;22.90;;
52618;SDS011;38513;53.234;6.568;2023-03-01T00:32:46;35.70;;;24.27;;
52618;SDS011;38513;53.234;6.568;2023-03-01T00:35:12;34.90;;;25.10;;
52618;SDS011;38513;53.234;6.568;2023-03-01T00:37:38;37.70;;;25.02;;
52618;SDS011;38513;53.234;6.568;2023-03-01T00:40:05;41.47;;;26.03;;
52618;SDS011;38513;53.234;6.568;2023-03-01T00:42:32;36.97;;;24.40;;
52618;SDS011;38513;53.234;6.568;2023-03-01T00:44:58;36.42;;;23.92;;
52618;SDS011;38513;53.234;6.568;2023-03-01T00:47:24;38.47;;;25.75;;
52618;SDS011;38513;53.234;6.568;2023-03-01T00:49:50;36.30;;;25.20;;
52618;SDS011;38513;53.234;6.568;2023-03-01T00:52:16;37.65;;;26.25;;
52618;SDS011;38513;53.234;6.568;2023-03-01T00:54:42;35.00;;;24.95;;
52618;SDS011;38513;53.234;6.568;2023-03-01T00:57:08;38.35;;;25.13;;
52618;SDS011;38513;53.234;6.568;2023-03-01T00:59:35;35.67;;;25.00;;
52618;SDS011;38513;53.234;6.568;2023-03-01T01:02:01;41.08;;;27.63;;
52618;SDS011;38513;53.234;6.568;2023-03-01T01:04:27;38.85;;;24.95;;
52618;SDS011;38513;53.234;6.568;2023-03-01T01:06:53;37.80;;;26.40;;
52618;SDS011;38513;53.234;6.568;2023-03-01T01:09:19;37.08;;;25.25;;
52618;SDS011;38513;53.234;6.568;2023-03-01T01:11:46;38.03;;;26.65;;
52618;SDS011;38513;53.234;6.568;2023-03-01T01:14:13;38.63;;;26.38;;
52618;SDS011;38513;53.234;6.568;2023-03-01T01:16:39;36.42;;;25.77;;
52618;SDS011;38513;53.234;6.568;2023-03-01T01:19:06;37.70;;;26.30;;
52618;SDS011;38513;53.234;6.568;2023-03-01T01:21:32;37.92;;;25.83;;
52618;SDS011;38513;53.234;6.568;2023-03-01T01:23:58;39.50;;;27.23;;
52618;SDS011;38513;53.234;6.568;2023-03-01T01:26:26;36.53;;;24.83;;
52618;SDS011;38513;53.234;6.568;2023-03-01T01:28:53;36.03;;;24.80;;
52618;SDS011;38513;53.234;6.568;2023-03-01T01:31:19;37.35;;;24.80;;
52618;SDS011;38513;53.234;6.568;2023-03-01T01:33:45;32.55;;;23.50;;
52618;SDS011;38513;53.234;6.568;2023-03-01T01:36:12;35.30;;;24.92;;
52618;SDS011;38513;53.234;6.568;2023-03-01T01:38:38;38.25;;;24.52;;
52618;SDS011;38513;53.234;6.568;2023-03-01T01:41:07;36.63;;;24.15;;
52618;SDS011;38513;53.234;6.568;2023-03-01T01:43:35;32.33;;;21.58;;
52618;SDS011;38513;53.234;6.568;2023-03-01T01:46:03;27.80;;;20.60;;
52618;SDS011;38513;53.234;6.568;2023-03-01T01:48:40;28.45;;;20.20;;
52618;SDS011;38513;53.234;6.568;2023-03-01T01:51:15;22.08;;;16.75;;
52618;SDS011;38513;53.234;6.568;2023-03-01T01:53:44;22.20;;;16.17;;
52618;SDS011;38513;53.234;6.568;2023-03-01T01:56:11;22.73;;;16.20;;
52618;SDS011;38513;53.234;6.568;2023-03-01T01:58:37;21.45;;;15.73;;
52618;SDS011;38513;53.234;6.568;2023-03-01T02:01:04;22.98;;;15.75;;
52618;SDS011;38513;53.234;6.568;2023-03-01T02:03:31;21.98;;;16.17;;
52618;SDS011;38513;53.234;6.568;2023-03-01T02:06:19;25.52;;;16.75;;
52618;SDS011;38513;53.234;6.568;2023-03-01T02:08:47;23.23;;;16.80;;
52618;SDS011;38513;53.234;6.568;2023-03-01T02:11:14;22.55;;;16.13;;
52618;SDS011;38513;53.234;6.568;2023-03-01T02:13:41;21.55;;;16.63;;
52618;SDS011;38513;53.234;6.568;2023-03-01T02:16:11;22.75;;;15.63;;
52618;SDS011;38513;53.234;6.568;2023-03-01T02:18:39;20.95;;;15.40;;
52618;SDS011;38513;53.234;6.568;2023-03-01T02:26:47;21.80;;;15.70;;
52618;SDS011;38513;53.234;6.568;2023-03-01T02:29:14;22.65;;;16.13;;
52618;SDS011;38513;53.234;6.568;2023-03-01T02:31:41;22.98;;;16.15;;
52618;SDS011;38513;53.234;6.568;2023-03-01T02:34:09;21.80;;;15.82;;
52618;SDS011;38513;53.234;6.568;2023-03-01T02:36:38;23.63;;;15.90;;
52618;SDS011;38513;53.234;6.568;2023-03-01T02:39:07;24.88;;;17.08;;
52618;SDS011;38513;53.234;6.568;2023-03-01T02:41:44;26.88;;;16.95;;
52618;SDS011;38513;53.234;6.568;2023-03-01T02:44:12;29.23;;;19.53;;
52618;SDS011;38513;53.234;6.568;2023-03-01T02:46:43;31.50;;;20.17;;
52618;SDS011;38513;53.234;6.568;2023-03-01T02:49:21;32.85;;;22.08;;
52618;SDS011;38513;53.234;6.568;2023-03-01T02:51:51;30.63;;;20.60;;
52618;SDS011;38513;53.234;6.568;2023-03-01T02:56:44;29.05;;;18.95;;
52618;SDS011;38513;53.234;6.568;2023-03-01T02:59:15;26.13;;;18.37;;
52618;SDS011;38513;53.234;6.568;2023-03-01T03:01:42;26.67;;;18.15;;
52618;SDS011;38513;53.234;6.568;2023-03-01T03:04:10;25.48;;;18.17;;
52618;SDS011;38513;53.234;6.568;2023-03-01T03:06:36;24.75;;;17.75;;
52618;SDS011;38513;53.234;6.568;2023-03-01T03:09:03;24.48;;;17.40;;
52618;SDS011;38513;53.234;6.568;2023-03-01T03:11:30;24.73;;;17.83;;
52618;SDS011;38513;53.234;6.568;2023-03-01T03:13:57;25.27;;;17.20;;
52618;SDS011;38513;53.234;6.568;2023-03-01T03:16:23;24.80;;;17.77;;
52618;SDS011;38513;53.234;6.568;2023-03-01T03:18:49;24.05;;;16.83;;
52618;SDS011;38513;53.234;6.568;2023-03-01T03:21:16;25.53;;;18.07;;
52618;SDS011;38513;53.234;6.568;2023-03-01T03:23:43;24.23;;;16.80;;
52618;SDS011;38513;53.234;6.568;2023-03-01T03:26:09;25.55;;;18.17;;
52618;SDS011;38513;53.234;6.568;2023-03-01T03:28:38;26.92;;;18.80;;
52618;SDS011;38513;53.234;6.568;2023-03-01T03:31:05;28.80;;;18.92;;
52618;SDS011;38513;53.234;6.568;2023-03-01T03:33:31;26.38;;;18.92;;
52618;SDS011;38513;53.234;6.568;2023-03-01T03:35:57;27.13;;;18.57;;
52618;SDS011;38513;53.234;6.568;2023-03-01T03:38:24;26.65;;;19.20;;
52618;SDS011;38513;53.234;6.568;2023-03-01T03:40:51;26.58;;;17.90;;
52618;SDS011;38513;53.234;6.568;2023-03-01T03:43:22;25.65;;;17.70;;
52618;SDS011;38513;53.234;6.568;2023-03-01T03:45:49;24.40;;;17.60;;
52618;SDS011;38513;53.234;6.568;2023-03-01T03:48:16;24.48;;;17.52;;
52618;SDS011;38513;53.234;6.568;2023-03-01T03:50:46;23.48;;;17.65;;
52618;SDS011;38513;53.234;6.568;2023-03-01T03:53:13;24.48;;;17.17;;
52618;SDS011;38513;53.234;6.568;2023-03-01T03:55:39;24.67;;;17.40;;
52618;SDS011;38513;53.234;6.568;2023-03-01T03:58:07;26.53;;;17.97;;
52618;SDS011;38513;53.234;6.568;2023-03-01T04:00:41;25.02;;;17.35;;
52618;SDS011;38513;53.234;6.568;2023-03-01T04:03:09;25.98;;;17.77;;
52618;SDS011;38513;53.234;6.568;2023-03-01T04:05:35;23.40;;;16.80;;
52618;SDS011;38513;53.234;6.568;2023-03-01T04:08:02;22.00;;;15.85;;
52618;SDS011;38513;53.234;6.568;2023-03-01T04:10:32;16.70;;;11.70;;
52618;SDS011;38513;53.234;6.568;2023-03-01T04:12:59;14.40;;;10.82;;
52618;SDS011;38513;53.234;6.568;2023-03-01T04:15:25;12.98;;;10.43;;
52618;SDS011;38513;53.234;6.568;2023-03-01T04:17:52;14.15;;;9.85;;
52618;SDS011;38513;53.234;6.568;2023-03-01T04:20:19;11.95;;;9.50;;
52618;SDS011;38513;53.234;6.568;2023-03-01T04:22:50;14.45;;;10.48;;
52618;SDS011;38513;53.234;6.568;2023-03-01T04:25:16;17.75;;;11.48;;
52618;SDS011;38513;53.234;6.568;2023-03-01T04:27:42;14.85;;;11.52;;
52618;SDS011;38513;53.234;6.568;2023-03-01T04:30:09;14.98;;;11.40;;
52618;SDS011;38513;53.234;6.568;2023-03-01T04:32:36;14.38;;;11.75;;
52618;SDS011;38513;53.234;6.568;2023-03-01T04:35:02;15.30;;;11.90;;
52618;SDS011;38513;53.234;6.568;2023-03-01T04:37:28;16.85;;;12.32;;
52618;SDS011;38513;53.234;6.568;2023-03-01T04:39:54;25.27;;;13.55;;
52618;SDS011;38513;53.234;6.568;2023-03-01T04:42:21;16.30;;;12.73;;
52618;SDS011;38513;53.234;6.568;2023-03-01T04:44:47;20.77;;;13.35;;
52618;SDS011;38513;53.234;6.568;2023-03-01T04:47:18;83.90;;;17.88;;
52618;SDS011;38513;53.234;6.568;2023-03-01T04:49:45;31.88;;;14.43;;
52618;SDS011;38513;53.234;6.568;2023-03-01T04:52:11;63.10;;;16.65;;
52618;SDS011;38513;53.234;6.568;2023-03-01T04:54:37;57.50;;;17.50;;
52618;SDS011;38513;53.234;6.568;2023-03-01T04:57:03;39.03;;;17.08;;
52618;SDS011;38513;53.234;6.568;2023-03-01T04:59:29;62.05;;;18.27;;
52618;SDS011;38513;53.234;6.568;2023-03-01T05:01:56;83.40;;;20.58;;
52618;SDS011;38513;53.234;6.568;2023-03-01T05:04:23;57.95;;;18.83;;
52618;SDS011;38513;53.234;6.568;2023-03-01T05:06:49;51.30;;;19.25;;
52618;SDS011;38513;53.234;6.568;2023-03-01T05:09:16;64.65;;;20.92;;
52618;SDS011;38513;53.234;6.568;2023-03-01T05:11:43;45.60;;;20.03;;
52618;SDS011;38513;53.234;6.568;2023-03-01T05:14:09;76.63;;;20.70;;
52618;SDS011;38513;53.234;6.568;2023-03-01T05:16:35;32.53;;;19.20;;
52618;SDS011;38513;53.234;6.568;2023-03-01T05:19:05;27.13;;;18.48;;
52618;SDS011;38513;53.234;6.568;2023-03-01T05:21:39;36.20;;;18.88;;
52618;SDS011;38513;53.234;6.568;2023-03-01T05:24:25;24.48;;;18.17;;
52618;SDS011;38513;53.234;6.568;2023-03-01T05:26:52;24.63;;;18.48;;
52618;SDS011;38513;53.234;6.568;2023-03-01T05:29:19;25.55;;;18.50;;
52618;SDS011;38513;53.234;6.568;2023-03-01T05:31:56;23.20;;;17.63;;
52618;SDS011;38513;53.234;6.568;2023-03-01T05:34:24;23.77;;;18.10;;
52618;SDS011;38513;53.234;6.568;2023-03-01T05:36:51;24.08;;;18.05;;
52618;SDS011;38513;53.234;6.568;2023-03-01T05:39:20;23.80;;;17.38;;
52618;SDS011;38513;53.234;6.568;2023-03-01T05:41:47;23.17;;;17.65;;
52618;SDS011;38513;53.234;6.568;2023-03-01T05:44:14;22.65;;;17.33;;
52618;SDS011;38513;53.234;6.568;2023-03-01T05:46:41;21.00;;;16.48;;
52618;SDS011;38513;53.234;6.568;2023-03-01T05:49:07;20.00;;;15.87;;
52618;SDS011;38513;53.234;6.568;2023-03-01T05:51:34;21.53;;;16.37;;
52618;SDS011;38513;53.234;6.568;2023-03-01T05:54:00;22.97;;;17.53;;
52618;SDS011;38513;53.234;6.568;2023-03-01T05:56:26;22.92;;;17.48;;
52618;SDS011;38513;53.234;6.568;2023-03-01T05:58:52;22.30;;;16.77;;
52618;SDS011;38513;53.234;6.568;2023-03-01T06:01:19;22.88;;;16.98;;
52618;SDS011;38513;53.234;6.568;2023-03-01T06:03:45;22.20;;;15.82;;
52618;SDS011;38513;53.234;6.568;2023-03-01T06:06:12;22.40;;;17.25;;
52618;SDS011;38513;53.234;6.568;2023-03-01T06:08:38;24.00;;;16.95;;
52618;SDS011;38513;53.234;6.568;2023-03-01T06:11:04;21.63;;;16.42;;
52618;SDS011;38513;53.234;6.568;2023-03-01T06:13:32;21.63;;;16.50;;
52618;SDS011;38513;53.234;6.568;2023-03-01T06:15:58;22.00;;;16.30;;
52618;SDS011;38513;53.234;6.568;2023-03-01T06:18:24;24.15;;;17.90;;
52618;SDS011;38513;53.234;6.568;2023-03-01T06:20:53;25.13;;;17.45;;
52618;SDS011;38513;53.234;6.568;2023-03-01T06:23:20;23.23;;;16.38;;
52618;SDS011;38513;53.234;6.568;2023-03-01T06:25:46;24.75;;;17.40;;
52618;SDS011;38513;53.234;6.568;2023-03-01T06:28:12;24.05;;;17.48;;
52618;SDS011;38513;53.234;6.568;2023-03-01T06:30:38;23.30;;;17.33;;
52618;SDS011;38513;53.234;6.568;2023-03-01T06:33:04;23.10;;;16.20;;
52618;SDS011;38513;53.234;6.568;2023-03-01T06:35:31;21.50;;;15.73;;
52618;SDS011;38513;53.234;6.568;2023-03-01T06:38:01;24.77;;;16.13;;
52618;SDS011;38513;53.234;6.568;2023-03-01T06:40:28;24.55;;;17.00;;
52618;SDS011;38513;53.234;6.568;2023-03-01T06:42:54;26.50;;;18.50;;
52618;SDS011;38513;53.234;6.568;2023-03-01T06:45:21;24.58;;;17.50;;
52618;SDS011;38513;53.234;6.568;2023-03-01T06:47:47;25.98;;;18.73;;
52618;SDS011;38513;53.234;6.568;2023-03-01T06:50:14;26.42;;;18.67;;
52618;SDS011;38513;53.234;6.568;2023-03-01T06:52:40;25.20;;;18.55;;
52618;SDS011;38513;53.234;6.568;2023-03-01T06:55:08;25.92;;;17.30;;
52618;SDS011;38513;53.234;6.568;2023-03-01T06:57:35;30.02;;;19.73;;
52618;SDS011;38513;53.234;6.568;2023-03-01T07:00:02;25.85;;;18.52;;
52618;SDS011;38513;53.234;6.568;2023-03-01T07:02:29;27.63;;;19.70;;
52618;SDS011;38513;53.234;6.568;2023-03-01T07:04:55;28.40;;;19.73;;
52618;SDS011;38513;53.234;6.568;2023-03-01T07:07:21;29.70;;;21.27;;
52618;SDS011;38513;53.234;6.568;2023-03-01T07:09:48;29.17;;;20.50;;
52618;SDS011;38513;53.234;6.568;2023-03-01T07:12:14;32.95;;;20.70;;
52618;SDS011;38513;53.234;6.568;2023-03-01T07:14:41;31.63;;;20.60;;
52618;SDS011;38513;53.234;6.568;2023-03-01T07:17:07;31.63;;;21.52;;
52618;SDS011;38513;53.234;6.568;2023-03-01T07:19:33;30.50;;;21.75;;
52618;SDS011;38513;53.234;6.568;2023-03-01T07:21:59;29.37;;;21.13;;
52618;SDS011;38513;53.234;6.568;2023-03-01T07:24:25;31.13;;;22.20;;
52618;SDS011;38513;53.234;6.568;2023-03-01T07:26:52;31.60;;;21.90;;
52618;SDS011;38513;53.234;6.568;2023-03-01T07:29:18;31.45;;;22.40;;
52618;SDS011;38513;53.234;6.568;2023-03-01T07:31:44;34.00;;;23.67;;
52618;SDS011;38513;53.234;6.568;2023-03-01T07:34:11;31.38;;;23.23;;
52618;SDS011;38513;53.234;6.568;2023-03-01T07:36:37;34.75;;;23.15;;
52618;SDS011;38513;53.234;6.568;2023-03-01T07:39:07;32.27;;;23.33;;
52618;SDS011;38513;53.234;6.568;2023-03-01T07:41:33;34.20;;;24.33;;
52618;SDS011;38513;53.234;6.568;2023-03-01T07:43:59;34.22;;;24.88;;
52618;SDS011;38513;53.234;6.568;2023-03-01T07:46:25;33.60;;;24.63;;
52618;SDS011;38513;53.234;6.568;2023-03-01T07:48:51;38.83;;;26.65;;
52618;SDS011;38513;53.234;6.568;2023-03-01T07:51:17;37.50;;;27.17;;
52618;SDS011;38513;53.234;6.568;2023-03-01T07:53:45;39.45;;;27.80;;
52618;SDS011;38513;53.234;6.568;2023-03-01T07:56:12;38.22;;;27.20;;
52618;SDS011;38513;53.234;6.568;2023-03-01T07:58:41;41.17;;;29.90;;
52618;SDS011;38513;53.234;6.568;2023-03-01T08:01:09;42.92;;;30.65;;
52618;SDS011;38513;53.234;6.568;2023-03-01T08:03:35;40.60;;;29.75;;
52618;SDS011;38513;53.234;6.568;2023-03-01T08:06:02;42.72;;;31.88;;
52618;SDS011;38513;53.234;6.568;2023-03-01T08:08:29;46.45;;;31.92;;
52618;SDS011;38513;53.234;6.568;2023-03-01T08:10:56;44.95;;;31.75;;
52618;SDS011;38513;53.234;6.568;2023-03-01T08:13:22;50.30;;;34.67;;
52618;SDS011;38513;53.234;6.568;2023-03-01T08:15:49;48.75;;;34.55;;
52618;SDS011;38513;53.234;6.568;2023-03-01T08:18:16;52.50;;;36.60;;
52618;SDS011;38513;53.234;6.568;2023-03-01T08:20:42;54.17;;;36.20;;
52618;SDS011;38513;53.234;6.568;2023-03-01T08:23:08;55.55;;;37.45;;
52618;SDS011;38513;53.234;6.568;2023-03-01T08:25:34;58.83;;;38.92;;
52618;SDS011;38513;53.234;6.568;2023-03-01T08:28:01;58.17;;;40.17;;
52618;SDS011;38513;53.234;6.568;2023-03-01T08:30:27;58.10;;;39.85;;
52618;SDS011;38513;53.234;6.568;2023-03-01T08:32:53;60.70;;;40.97;;
52618;SDS011;38513;53.234;6.568;2023-03-01T08:35:19;61.55;;;40.63;;
52618;SDS011;38513;53.234;6.568;2023-03-01T08:37:46;60.63;;;40.92;;
52618;SDS011;38513;53.234;6.568;2023-03-01T08:40:14;60.13;;;41.75;;
52618;SDS011;38513;53.234;6.568;2023-03-01T08:42:41;67.40;;;45.10;;
52618;SDS011;38513;53.234;6.568;2023-03-01T08:45:11;60.25;;;41.97;;
52618;SDS011;38513;53.234;6.568;2023-03-01T08:47:39;60.47;;;40.92;;
52618;SDS011;38513;53.234;6.568;2023-03-01T08:50:05;59.97;;;40.80;;
52618;SDS011;38513;53.234;6.568;2023-03-01T08:52:32;61.90;;;42.10;;
52618;SDS011;38513;53.234;6.568;2023-03-01T08:54:58;62.28;;;42.55;;
52618;SDS011;38513;53.234;6.568;2023-03-01T08:57:26;60.30;;;40.72;;
52618;SDS011;38513;53.234;6.568;2023-03-01T08:59:52;60.03;;;42.75;;
52618;SDS011;38513;53.234;6.568;2023-03-01T09:02:21;65.05;;;41.20;;
52618;SDS011;38513;53.234;6.568;2023-03-01T09:04:47;61.28;;;41.92;;
52618;SDS011;38513;53.234;6.568;2023-03-01T09:07:13;60.88;;;40.60;;
52618;SDS011;38513;53.234;6.568;2023-03-01T09:09:39;65.57;;;43.22;;
52618;SDS011;38513;53.234;6.568;2023-03-01T09:12:06;61.60;;;41.50;;
52618;SDS011;38513;53.234;6.568;2023-03-01T09:14:32;62.92;;;41.65;;
52618;SDS011;38513;53.234;6.568;2023-03-01T09:16:58;57.42;;;39.53;;
52618;SDS011;38513;53.234;6.568;2023-03-01T09:19:27;59.50;;;40.43;;
52618;SDS011;38513;53.234;6.568;2023-03-01T09:21:54;56.60;;;39.03;;
52618;SDS011;38513;53.234;6.568;2023-03-01T09:24:21;54.75;;;39.05;;
52618;SDS011;38513;53.234;6.568;2023-03-01T09:26:48;54.97;;;37.63;;
52618;SDS011;38513;53.234;6.568;2023-03-01T09:29:14;55.40;;;36.53;;
52618;SDS011;38513;53.234;6.568;2023-03-01T09:31:41;49.17;;;34.88;;
52618;SDS011;38513;53.234;6.568;2023-03-01T09:34:08;46.40;;;34.05;;
52618;SDS011;38513;53.234;6.568;2023-03-01T09:36:34;44.92;;;32.90;;
52618;SDS011;38513;53.234;6.568;2023-03-01T09:39:01;46.20;;;32.53;;
52618;SDS011;38513;53.234;6.568;2023-03-01T09:41:46;45.73;;;31.67;;
52618;SDS011;38513;53.234;6.568;2023-03-01T09:44:21;45.30;;;33.13;;
52618;SDS011;38513;53.234;6.568;2023-03-01T09:46:49;43.72;;;31.83;;
52618;SDS011;38513;53.234;6.568;2023-03-01T09:49:28;43.40;;;31.63;;
52618;SDS011;38513;53.234;6.568;2023-03-01T09:52:00;41.95;;;31.23;;
52618;SDS011;38513;53.234;6.568;2023-03-01T09:54:26;38.47;;;29.08;;
52618;SDS011;38513;53.234;6.568;2023-03-01T09:57:01;38.83;;;29.63;;
52618;SDS011;38513;53.234;6.568;2023-03-01T09:59:33;42.20;;;30.23;;
52618;SDS011;38513;53.234;6.568;2023-03-01T10:04:50;39.63;;;29.40;;
52618;SDS011;38513;53.234;6.568;2023-03-01T10:09:58;32.10;;;25.10;;
52618;SDS011;38513;53.234;6.568;2023-03-01T10:12:35;31.50;;;23.92;;
52618;SDS011;38513;53.234;6.568;2023-03-01T10:15:08;32.97;;;23.95;;
52618;SDS011;38513;53.234;6.568;2023-03-01T10:20:25;28.08;;;22.65;;
52618;SDS011;38513;53.234;6.568;2023-03-01T10:22:50;26.35;;;20.90;;
52618;SDS011;38513;53.234;6.568;2023-03-01T10:25:51;26.17;;;20.17;;
52618;SDS011;38513;53.234;6.568;2023-03-01T10:28:13;25.17;;;21.07;;
52618;SDS011;38513;53.234;6.568;2023-03-01T10:30:42;26.52;;;21.50;;
52618;SDS011;38513;53.234;6.568;2023-03-01T10:33:27;22.70;;;19.93;;
52618;SDS011;38513;53.234;6.568;2023-03-01T10:35:55;24.58;;;20.00;;
52618;SDS011;38513;53.234;6.568;2023-03-01T10:38:21;23.15;;;19.73;;
52618;SDS011;38513;53.234;6.568;2023-03-01T10:43:20;24.42;;;19.60;;
52618;SDS011;38513;53.234;6.568;2023-03-01T10:45:47;20.73;;;18.25;;
52618;SDS011;38513;53.234;6.568;2023-03-01T10:48:20;22.38;;;18.70;;
52618;SDS011;38513;53.234;6.568;2023-03-01T10:50:49;20.00;;;17.30;;
52618;SDS011;38513;53.234;6.568;2023-03-01T10:53:20;19.65;;;17.27;;
52618;SDS011;38513;53.234;6.568;2023-03-01T10:55:56;19.37;;;16.67;;
52618;SDS011;38513;53.234;6.568;2023-03-01T10:58:22;18.83;;;16.55;;
52618;SDS011;38513;53.234;6.568;2023-03-01T11:00:52;20.05;;;17.38;;
52618;SDS011;38513;53.234;6.568;2023-03-01T11:03:38;18.10;;;16.08;;
52618;SDS011;38513;53.234;6.568;2023-03-01T11:06:06;18.27;;;16.00;;
52618;SDS011;38513;53.234;6.568;2023-03-01T11:08:46;18.50;;;16.50;;
52618;SDS011;38513;53.234;6.568;2023-03-01T11:11:32;18.20;;;15.80;;
52618;SDS011;38513;53.234;6.568;2023-03-01T11:19:00;17.00;;;15.00;;
52618;SDS011;38513;53.234;6.568;2023-03-01T11:21:27;17.10;;;15.20;;
52618;SDS011;38513;53.234;6.568;2023-03-01T11:23:54;16.45;;;14.45;;
52618;SDS011;38513;53.234;6.568;2023-03-01T11:26:20;17.77;;;15.73;;
52618;SDS011;38513;53.234;6.568;2023-03-01T11:28:49;19.38;;;16.60;;
52618;SDS011;38513;53.234;6.568;2023-03-01T11:31:16;17.95;;;15.65;;
52618;SDS011;38513;53.234;6.568;2023-03-01T11:36:16;17.42;;;15.25;;
52618;SDS011;38513;53.234;6.568;2023-03-01T11:38:45;16.52;;;14.13;;
52618;SDS011;38513;53.234;6.568;2023-03-01T11:43:52;15.97;;;13.50;;
52618;SDS011;38513;53.234;6.568;2023-03-01T11:48:51;17.63;;;14.50;;
52618;SDS011;38513;53.234;6.568;2023-03-01T11:56:46;17.77;;;15.65;;
52618;SDS011;38513;53.234;6.568;2023-03-01T11:59:31;15.68;;;13.98;;
52618;SDS011;38513;53.234;6.568;2023-03-01T12:14:53;14.80;;;13.02;;
52618;SDS011;38513;53.234;6.568;2023-03-01T12:23:00;17.98;;;14.40;;
52618;SDS011;38513;53.234;6.568;2023-03-01T12:33:22;16.95;;;14.43;;
52618;SDS011;38513;53.234;6.568;2023-03-01T12:35:54;17.88;;;14.40;;
52618;SDS011;38513;53.234;6.568;2023-03-01T12:48:53;14.87;;;11.57;;
52618;SDS011;38513;53.234;6.568;2023-03-01T12:51:23;14.60;;;11.30;;
52618;SDS011;38513;53.234;6.568;2023-03-01T12:53:50;15.63;;;12.20;;
52618;SDS011;38513;53.234;6.568;2023-03-01T12:56:18;16.27;;;13.43;;
52618;SDS011;38513;53.234;6.568;2023-03-01T13:01:16;17.08;;;13.43;;
52618;SDS011;38513;53.234;6.568;2023-03-01T13:11:23;17.40;;;12.93;;
52618;SDS011;38513;53.234;6.568;2023-03-01T13:13:49;14.68;;;11.75;;
52618;SDS011;38513;53.234;6.568;2023-03-01T13:16:21;14.57;;;11.47;;
52618;SDS011;38513;53.234;6.568;2023-03-01T13:18:51;14.25;;;11.32;;
52618;SDS011;38513;53.234;6.568;2023-03-01T13:21:31;15.68;;;12.20;;
52618;SDS011;38513;53.234;6.568;2023-03-01T13:23:57;17.60;;;12.82;;
52618;SDS011;38513;53.234;6.568;2023-03-01T13:26:24;15.77;;;12.90;;
52618;SDS011;38513;53.234;6.568;2023-03-01T13:28:51;18.05;;;13.10;;
52618;SDS011;38513;53.234;6.568;2023-03-01T13:33:45;16.38;;;13.75;;
52618;SDS011;38513;53.234;6.568;2023-03-01T13:36:13;18.13;;;13.43;;
52618;SDS011;38513;53.234;6.568;2023-03-01T13:46:43;15.82;;;12.68;;
52618;SDS011;38513;53.234;6.568;2023-03-01T13:49:11;17.52;;;13.25;;
52618;SDS011;38513;53.234;6.568;2023-03-01T13:51:40;16.08;;;12.88;;
52618;SDS011;38513;53.234;6.568;2023-03-01T13:54:09;14.38;;;11.93;;
52618;SDS011;38513;53.234;6.568;2023-03-01T13:56:37;16.27;;;12.43;;
52618;SDS011;38513;53.234;6.568;2023-03-01T13:59:05;16.77;;;12.25;;
52618;SDS011;38513;53.234;6.568;2023-03-01T14:01:34;12.95;;;11.13;;
52618;SDS011;38513;53.234;6.568;2023-03-01T14:04:00;15.68;;;11.35;;
52618;SDS011;38513;53.234;6.568;2023-03-01T14:06:28;16.10;;;11.80;;
52618;SDS011;38513;53.234;6.568;2023-03-01T14:09:14;13.90;;;11.63;;
52618;SDS011;38513;53.234;6.568;2023-03-01T14:19:37;15.65;;;12.38;;
52618;SDS011;38513;53.234;6.568;2023-03-01T14:24:49;14.90;;;11.90;;
52618;SDS011;38513;53.234;6.568;2023-03-01T14:27:17;15.27;;;11.95;;
52618;SDS011;38513;53.234;6.568;2023-03-01T14:29:43;15.40;;;12.88;;
52618;SDS011;38513;53.234;6.568;2023-03-01T14:32:20;16.23;;;12.68;;
52618;SDS011;38513;53.234;6.568;2023-03-01T14:34:47;16.55;;;12.40;;
52618;SDS011;38513;53.234;6.568;2023-03-01T14:37:18;16.00;;;12.70;;
52618;SDS011;38513;53.234;6.568;2023-03-01T14:39:45;16.40;;;12.40;;
52618;SDS011;38513;53.234;6.568;2023-03-01T14:42:12;14.57;;;11.85;;
52618;SDS011;38513;53.234;6.568;2023-03-01T14:44:38;16.90;;;12.50;;
52618;SDS011;38513;53.234;6.568;2023-03-01T14:47:10;16.23;;;12.70;;
52618;SDS011;38513;53.234;6.568;2023-03-01T14:49:38;16.65;;;13.10;;
52618;SDS011;38513;53.234;6.568;2023-03-01T14:52:06;15.45;;;13.00;;
52618;SDS011;38513;53.234;6.568;2023-03-01T14:54:37;16.67;;;12.83;;
52618;SDS011;38513;53.234;6.568;2023-03-01T14:57:05;15.65;;;12.30;;
52618;SDS011;38513;53.234;6.568;2023-03-01T14:59:38;15.85;;;12.90;;
52618;SDS011;38513;53.234;6.568;2023-03-01T15:02:04;16.15;;;12.63;;
52618;SDS011;38513;53.234;6.568;2023-03-01T15:04:30;16.67;;;13.05;;
52618;SDS011;38513;53.234;6.568;2023-03-01T15:06:58;16.23;;;13.48;;
52618;SDS011;38513;53.234;6.568;2023-03-01T15:09:32;18.58;;;13.63;;
52618;SDS011;38513;53.234;6.568;2023-03-01T15:12:00;17.88;;;14.10;;
52618;SDS011;38513;53.234;6.568;2023-03-01T15:14:28;16.75;;;13.38;;
52618;SDS011;38513;53.234;6.568;2023-03-01T15:16:55;18.02;;;13.20;;
52618;SDS011;38513;53.234;6.568;2023-03-01T15:19:21;17.23;;;13.40;;
52618;SDS011;38513;53.234;6.568;2023-03-01T15:21:49;16.58;;;13.27;;
52618;SDS011;38513;53.234;6.568;2023-03-01T15:24:16;16.77;;;13.60;;
52618;SDS011;38513;53.234;6.568;2023-03-01T15:26:50;16.98;;;13.73;;
52618;SDS011;38513;53.234;6.568;2023-03-01T15:29:19;17.25;;;14.00;;
52618;SDS011;38513;53.234;6.568;2023-03-01T15:31:56;16.50;;;13.43;;
52618;SDS011;38513;53.234;6.568;2023-03-01T15:34:23;17.77;;;13.98;;
52618;SDS011;38513;53.234;6.568;2023-03-01T15:36:51;18.40;;;13.88;;
52618;SDS011;38513;53.234;6.568;2023-03-01T15:39:26;16.90;;;13.77;;
52618;SDS011;38513;53.234;6.568;2023-03-01T15:41:53;15.38;;;12.20;;
52618;SDS011;38513;53.234;6.568;2023-03-01T15:44:27;15.30;;;12.68;;
52618;SDS011;38513;53.234;6.568;2023-03-01T15:46:54;16.70;;;12.75;;
52618;SDS011;38513;53.234;6.568;2023-03-01T15:49:24;16.27;;;12.83;;
52618;SDS011;38513;53.234;6.568;2023-03-01T15:51:51;15.10;;;12.70;;
52618;SDS011;38513;53.234;6.568;2023-03-01T15:54:20;15.50;;;12.38;;
52618;SDS011;38513;53.234;6.568;2023-03-01T15:56:47;17.85;;;13.40;;
52618;SDS011;38513;53.234;6.568;2023-03-01T15:59:13;16.90;;;13.27;;
52618;SDS011;38513;53.234;6.568;2023-03-01T16:01:40;17.27;;;13.27;;
52618;SDS011;38513;53.234;6.568;2023-03-01T16:04:06;18.73;;;13.52;;
52618;SDS011;38513;53.234;6.568;2023-03-01T16:06:32;16.27;;;12.57;;
52618;SDS011;38513;53.234;6.568;2023-03-01T16:08:58;17.90;;;13.20;;
52618;SDS011;38513;53.234;6.568;2023-03-01T16:11:25;17.57;;;13.67;;